Lemoore, California
Current Conditions -  °F | °C
As of 8:53 PM on Monday 20 Oct 2014 (Local Time) from KHJO Reporting Station
Light Rain Light Rain  
Wind Chill: 68°   Ceiling: Unl
Heat Index: 68°   Visibility: 9mi
Dew Point: 55°   Wind: 20mph
Humidity: 63%   Direction: 330°NNW
Pressure: 29.95"   Gusts: 26mph
Location:  36.3°N, 119.78°W
Report Text: KHJO 210353Z AUTO 33017G23KT 9SM -RA CLR 20/13 A2995 RMK AO2 RAB0254E0258B33 SLP143 P0000 T02000128
Loading
Personal Weather Stations






























Interactive Weather Map
Tropical Storm Tracking
New forecast layout! Learn more

10-Day Weather Forecast

Advertisements
Track Severe Weather on mobile